Date,TemperatureHighF,TemperatureAvgF,TemperatureLowF,DewpointHighF,DewpointAvgF,DewpointLowF,HumidityHigh,HumidityAvg,HumidityLow,PressureMaxIn,PressureMinIn,WindSpeedMaxMPH,WindSpeedAvgMPH,GustSpeedMaxMPH,PrecipitationSumIn
2014-1-1,62.9,49.0,39.5,43.0,37.0,32.0,84,65,46,30.20,30.11,2,0,0,0.00
2014-1-2,70.1,52.6,41.3,38.0,35.0,32.0,76,55,25,30.16,30.04,3,0,0,0.00
2014-1-3,66.6,51.9,42.9,43.0,38.5,34.0,82,62,38,30.05,29.94,2,0,0,0.00
2014-1-4,69.4,52.7,41.5,47.0,36.1,23.0,94,60,18,30.06,29.96,3,0,0,0.00
2014-1-5,68.9,58.7,47.0,27.0,14.2,6.0,43,19,12,30.18,30.05,11,2,0,0.00
2014-1-6,62.7,51.8,43.5,41.0,35.8,29.0,68,56,33,30.26,30.14,5,0,0,0.00
2014-1-7,62.7,52.1,44.8,51.0,41.1,35.0,93,68,41,30.20,30.12,1,0,0,0.00
2014-1-8,60.4,53.2,46.7,51.0,49.1,45.0,94,86,65,30.21,30.13,1,0,0,0.00
2014-1-9,63.9,52.2,46.8,51.0,45.1,38.0,95,78,51,30.25,30.17,2,0,0,0.00
2014-1-10,64.5,51.3,44.3,47.0,43.9,38.0,93,77,49,30.29,30.17,3,0,0,0.00
2014-1-11,55.4,49.6,45.1,52.0,46.9,43.0,95,90,79,30.27,30.14,4,0,0,0.00
2014-1-12,62.4,51.3,43.5,44.0,38.6,28.0,94,66,33,30.38,30.24,4,0,0,0.00
2014-1-13,68.4,56.0,44.8,36.0,33.7,30.0,66,45,25,30.42,30.32,11,2,0,0.00
2014-1-14,72.3,57.9,47.4,38.0,31.5,24.0,65,39,19,30.43,30.30,6,0,0,0.00
2014-1-15,74.4,62.6,47.3,40.0,27.0,14.0,74,29,11,30.31,30.18,15,2,0,0.00
2014-1-16,77.2,62.3,49.5,36.0,21.7,8.0,60,25,9,30.20,30.10,10,1,0,0.00
2014-1-17,74.0,55.4,42.8,36.0,30.1,24.0,61,40,24,30.17,30.09,3,0,0,0.00
2014-1-18,74.6,55.0,42.3,38.0,32.0,23.0,70,45,21,30.16,30.05,2,0,0,0.00
2014-1-19,72.7,54.4,42.6,38.0,32.4,29.0,69,46,24,30.12,30.04,3,0,0,0.00
2014-1-20,70.6,54.9,42.9,43.0,35.6,28.0,68,51,25,30.21,30.09,2,0,0,0.00
2014-1-21,73.0,54.2,41.1,38.0,28.6,21.0,72,42,15,30.25,30.14,3,0,0,0.00
2014-1-22,72.1,52.6,41.9,43.0,33.4,20.0,84,52,14,30.16,29.91,2,0,0,0.00
2014-1-23,69.8,56.7,43.3,44.0,30.9,20.0,88,45,17,30.00,29.85,16,2,0,0.00
2014-1-24,69.4,53.6,45.4,45.0,40.1,37.0,89,63,31,30.26,29.99,3,0,0,0.00
2014-1-25,71.6,56.6,46.2,45.0,39.4,29.0,87,56,28,30.26,30.11,4,0,0,0.00
2014-1-26,71.3,55.5,47.1,50.0,40.0,32.0,92,60,28,30.12,30.02,2,0,0,0.00
2014-1-27,62.1,52.9,47.9,50.0,47.8,45.0,91,83,57,30.18,30.06,1,0,0,0.00
2014-1-28,65.8,57.1,50.8,56.0,52.1,48.0,94,84,62,30.25,30.17,3,0,0,0.00
2014-1-29,59.2,56.5,52.8,58.0,54.9,51.0,96,94,90,30.20,29.98,1,0,0,0.03
2014-1-30,63.2,54.2,50.2,52.0,47.7,44.0,95,80,57,29.98,29.84,3,0,0,0.07
2014-1-31,63.1,51.5,43.5,46.0,37.2,27.0,89,62,27,30.07,29.89,3,0,0,0.00
2014-2-1,60.5,48.6,40.9,42.0,35.1,24.0,83,63,26,30.15,30.05,5,0,0,0.00
2014-2-2,52.2,47.5,44.8,43.0,40.0,34.0,85,75,56,30.05,29.83,11,2,0,0.18
2014-2-3,44.8,44.5,43.9,40.0,38.3,37.0,82,79,76,30.00,29.97,3,1,0,0.00
2014-2-6,50.5,48.0,48.9,49.0,42.4,-99.9,94,89,92,29.97,29.76,2,-40,0,0.00
2014-2-7,53.5,52.0,50.2,52.0,50.0,48.0,95,92,84,29.97,29.86,12,1,0,0.63
2014-2-8,57.8,55.3,52.5,57.0,54.4,51.0,97,96,94,30.03,29.91,11,2,0,1.73
2014-2-9,57.6,56.7,55.6,57.0,56.3,55.0,98,98,97,30.03,29.93,4,1,0,2.32
2014-2-10,58.0,54.1,50.5,57.0,53.1,49.0,98,96,87,30.16,29.98,2,0,0,0.02
2014-2-11,60.2,52.8,48.8,52.0,49.5,48.0,97,89,68,30.13,30.06,4,0,0,0.00
2014-2-12,60.5,53.3,48.3,51.0,49.0,47.0,96,86,67,30.16,30.06,4,0,0,0.00
2014-2-13,69.9,58.7,52.0,56.0,53.6,51.0,97,84,61,30.10,29.98,2,0,0,0.00
2014-2-14,66.6,57.0,52.6,58.0,54.1,51.0,98,90,67,30.05,29.93,1,0,0,0.02
2014-2-15,59.6,55.6,51.3,54.0,52.0,50.0,96,88,78,29.93,29.86,6,1,0,0.02
2014-2-16,66.1,54.8,45.4,55.0,43.2,27.0,98,71,23,30.09,29.91,2,0,0,0.03
2014-2-17,64.0,52.0,42.5,46.0,42.0,37.0,94,72,39,30.06,29.97,2,0,0,0.00
2014-2-18,65.0,53.4,46.0,50.0,46.6,44.0,93,79,52,30.07,29.97,1,0,0,0.00
2014-2-19,67.3,56.3,49.4,52.0,45.9,40.0,95,71,41,30.09,29.97,3,0,0,0.01
2014-2-20,71.3,55.0,43.5,45.0,40.4,33.0,87,62,25,30.09,29.99,3,0,0,0.00
2014-2-21,72.1,55.1,45.1,48.0,43.8,37.0,89,69,28,30.00,29.87,2,0,0,0.00
2014-2-22,69.1,53.7,45.1,51.0,46.8,43.0,96,80,42,29.89,29.82,4,0,0,0.00
2014-2-23,68.3,53.3,44.9,51.0,47.9,43.0,96,83,54,29.90,29.84,3,0,0,0.00
2014-2-24,75.1,56.2,44.8,54.0,48.3,44.0,98,78,39,29.88,29.80,2,0,0,0.00
2014-2-25,61.3,54.2,50.7,50.0,48.6,47.0,93,82,64,29.86,29.79,4,0,0,0.00
2014-2-26,59.3,55.7,51.1,56.0,52.0,47.0,96,87,74,29.83,29.54,4,1,0,0.90
2014-2-27,66.0,58.6,53.9,54.0,48.8,41.0,93,72,49,29.77,29.39,6,1,0,0.06
2014-2-28,61.0,55.8,53.1,55.0,50.9,40.0,95,84,47,29.39,29.24,7,1,0,1.11
2014-3-1,67.6,58.3,51.9,53.0,48.3,44.0,93,71,47,29.69,29.34,7,1,0,0.03
2014-3-2,58.4,54.6,49.8,56.0,50.9,48.0,95,87,78,30.04,29.68,8,1,0,0.05
2014-3-3,60.9,55.3,49.8,53.0,49.4,48.0,95,81,63,30.03,29.92,4,0,0,0.09
2014-3-4,65.0,57.2,53.5,55.0,52.9,50.0,95,86,69,30.00,29.92,3,0,0,0.05
2014-3-5,67.1,59.2,53.6,58.0,55.0,53.0,97,87,63,29.98,29.87,3,0,0,0.46
2014-3-6,66.4,57.2,49.9,58.0,53.0,48.0,98,87,61,30.08,29.92,4,0,0,0.01
2014-3-7,69.3,55.9,45.8,49.0,46.4,41.0,95,74,38,30.06,29.99,5,0,0,0.00
2014-3-8,72.7,58.8,47.6,53.0,49.4,39.0,97,73,47,30.09,29.98,2,0,0,0.00
2014-3-9,73.7,62.7,54.5,57.0,50.7,40.0,82,66,48,30.06,29.95,2,0,0,0.00
2014-3-10,72.5,61.0,52.9,55.0,47.6,39.0,93,64,37,30.11,29.98,3,0,0,0.03
2014-3-11,75.6,62.3,48.6,37.0,29.2,21.0,54,31,19,30.07,29.89,4,0,0,0.00
2014-3-12,77.4,64.5,54.8,33.0,26.4,19.0,37,24,16,30.00,29.89,8,1,0,0.00
2014-3-13,76.3,60.6,48.2,50.0,38.3,23.0,90,48,20,30.03,29.87,3,0,0,0.00
2014-3-14,71.1,59.2,51.1,51.0,49.0,47.0,92,71,44,30.20,30.03,2,0,0,0.00
2014-3-15,78.1,60.3,48.6,54.0,48.8,43.0,93,71,29,30.29,30.20,2,0,0,0.00
2014-3-16,72.5,57.4,47.4,54.0,49.2,45.0,94,76,48,30.29,30.19,2,0,0,0.00
2014-3-17,72.5,58.2,47.9,49.0,45.0,38.0,85,64,29,30.20,29.96,3,0,0,0.00
2014-3-18,74.4,58.3,44.3,44.0,34.6,24.0,83,47,17,29.96,29.89,5,0,0,0.00
2014-3-19,77.6,60.1,45.7,47.0,37.7,28.0,74,48,21,30.05,29.94,4,0,0,0.00
2014-3-20,70.8,57.9,50.1,51.0,45.7,38.0,89,66,40,30.04,29.93,2,0,0,0.00
2014-3-21,63.9,54.3,48.3,49.0,46.5,44.0,89,76,56,29.97,29.92,4,1,0,0.00
2014-3-22,65.5,53.9,45.1,49.0,46.2,43.0,95,77,54,30.10,29.97,4,0,0,0.00
2014-3-23,65.0,55.2,47.0,50.0,46.9,44.0,93,75,54,30.15,30.08,3,0,0,0.00
2014-3-24,70.9,55.1,45.8,53.0,47.8,43.0,96,79,46,30.16,30.02,3,0,0,0.00
2014-3-25,61.3,53.9,46.1,55.0,49.8,44.0,94,86,72,30.05,29.86,4,0,0,0.01
2014-3-26,63.1,55.3,50.7,54.0,50.3,48.0,95,84,59,29.97,29.79,9,1,0,0.56
2014-3-27,65.8,56.5,50.4,55.0,49.3,44.0,96,79,47,30.13,29.97,3,0,0,0.41
2014-3-28,71.3,60.2,54.5,53.0,50.0,47.0,91,71,46,30.18,30.11,5,1,0,0.01
2014-3-29,58.1,55.2,48.2,56.0,52.2,47.0,96,90,74,30.12,30.00,5,1,0,0.93
2014-3-30,62.1,52.7,44.8,52.0,45.5,42.0,98,79,52,30.12,30.03,4,0,0,0.00
2014-3-31,55.9,49.5,46.1,48.0,44.4,42.0,94,83,62,30.07,29.84,6,1,0,0.66
2014-4-1,56.5,48.1,44.3,48.0,44.5,42.0,94,87,60,29.93,29.82,6,1,0,0.87
2014-4-2,65.0,51.9,43.8,47.0,43.7,40.0,95,76,41,30.10,29.86,4,0,0,0.02
2014-4-3,63.7,54.5,46.4,48.0,46.2,44.0,94,75,53,30.11,30.04,2,0,0,0.00
2014-4-4,61.5,53.7,49.1,52.0,47.6,44.0,95,80,57,30.05,29.97,2,0,0,0.30
2014-4-5,70.4,56.0,44.6,50.0,46.0,43.0,96,73,42,30.19,30.04,4,0,0,0.00
2014-4-6,76.1,60.4,47.7,54.0,49.8,46.0,95,71,40,30.23,30.11,2,0,0,0.00
2014-4-7,85.7,66.2,52.0,57.0,51.3,44.0,92,64,23,30.14,30.06,3,0,0,0.00
2014-4-8,79.9,63.2,53.2,58.0,53.4,51.0,96,73,44,30.10,30.04,4,0,0,0.00
2014-4-9,65.2,56.5,51.6,53.0,51.0,50.0,95,83,62,30.09,30.00,2,0,0,0.00
2014-4-10,73.5,58.5,50.7,55.0,51.0,48.0,93,78,49,30.04,29.90,4,0,0,0.00
2014-4-11,63.7,55.8,51.9,52.0,50.1,48.0,94,82,64,29.95,29.87,3,0,0,0.00
2014-4-12,64.3,56.9,53.5,50.0,48.3,47.0,83,73,59,29.94,29.86,4,1,0,0.00
2014-4-13,69.6,58.8,52.9,52.0,49.5,46.0,91,72,53,30.05,29.94,3,0,0,0.00
2014-4-14,67.3,57.7,50.5,53.0,51.0,48.0,93,79,58,30.11,30.01,3,0,0,0.00
2014-4-15,68.4,58.6,52.9,53.0,49.8,47.0,87,74,55,30.08,29.91,3,0,0,0.00
2014-4-16,74.7,61.2,49.2,52.0,48.7,45.0,92,67,37,29.92,29.82,2,0,0,0.00
2014-4-17,71.6,60.6,50.5,54.0,50.1,49.0,95,70,48,29.86,29.79,4,0,0,0.00
2014-4-18,66.3,57.5,49.8,52.0,48.5,45.0,93,73,56,29.95,29.86,3,0,0,0.00
2014-4-19,66.9,57.0,50.1,54.0,49.1,45.0,89,76,57,30.11,29.95,5,1,0,0.00
2014-4-20,78.6,61.0,48.9,56.0,49.3,42.0,96,70,32,30.14,30.07,2,0,0,0.00
2014-4-21,65.3,56.3,47.7,51.0,48.0,45.0,92,75,52,30.08,29.97,3,0,0,0.00
2014-4-22,68.4,57.3,48.5,52.0,40.2,34.0,90,56,28,30.11,29.96,5,0,0,0.00
2014-4-23,71.8,56.8,44.1,49.0,41.1,34.0,83,58,33,30.14,30.08,5,0,0,0.00
2014-4-24,66.1,57.5,50.4,55.0,51.7,48.0,94,82,63,30.11,29.98,4,0,0,0.00
2014-4-25,56.7,53.4,47.3,55.0,50.4,44.0,95,89,70,29.98,29.78,4,0,0,0.12
2014-4-26,66.0,53.0,42.5,48.0,43.0,38.0,97,72,36,30.08,29.84,5,0,0,0.01
2014-4-27,65.3,56.5,50.5,51.0,47.6,43.0,91,73,55,30.13,30.01,3,0,0,0.02
2014-4-28,73.5,59.6,46.2,50.0,44.8,36.0,91,62,29,30.21,30.13,3,0,0,0.00
2014-4-29,84.7,67.5,51.9,53.0,45.8,39.0,81,49,24,30.19,30.05,2,0,0,0.00
2014-4-30,94.0,74.4,55.3,52.0,43.9,31.0,82,39,17,30.07,30.01,11,1,0,0.00
2014-5-1,88.0,71.7,57.0,52.0,44.3,37.0,72,41,19,30.09,30.02,2,0,0,0.00
2014-5-2,71.5,60.4,49.8,55.0,51.8,46.0,92,75,52,30.10,30.02,3,0,0,0.00
2014-5-3,68.4,59.4,54.1,53.0,51.0,48.0,91,75,54,30.05,29.99,10,1,0,0.00
2014-5-4,68.4,59.4,51.6,54.0,51.6,49.0,94,77,58,30.05,30.00,3,0,0,0.00
2014-5-5,68.3,59.3,51.9,52.0,47.9,40.0,87,68,41,30.05,29.95,6,1,0,0.00
2014-5-6,74.0,59.8,49.2,48.0,43.7,41.0,81,58,33,29.95,29.86,6,0,0,0.00
2014-5-7,68.3,57.7,49.1,49.0,46.3,42.0,89,68,40,29.99,29.88,6,1,0,0.00
2014-5-8,62.6,57.5,52.2,57.0,52.1,47.0,93,82,75,30.08,29.98,3,0,0,0.00
2014-5-9,72.3,61.1,53.2,55.0,50.0,42.0,94,70,39,30.15,30.08,5,0,0,0.00
2014-5-10,72.7,59.7,46.8,46.0,43.4,37.0,89,59,30,30.13,30.02,4,0,0,0.00
2014-5-11,83.4,66.4,53.2,46.0,36.7,27.0,69,38,13,30.09,30.02,11,1,0,0.00
2014-5-12,84.9,66.1,49.6,52.0,45.0,38.0,76,51,23,30.11,30.04,3,0,0,0.00
2014-5-13,93.4,70.8,54.2,48.0,43.1,37.0,71,41,16,30.13,30.06,3,0,0,0.00
2014-5-14,91.6,73.9,57.8,52.0,45.1,38.0,60,38,17,30.13,30.05,2,0,0,0.00
2014-5-15,81.2,67.9,55.7,54.0,47.0,32.0,83,49,30,30.10,30.05,2,0,0,0.00
2014-5-16,76.0,61.9,51.3,54.0,51.2,49.0,93,70,43,30.09,29.99,6,0,0,0.00
2014-5-17,66.0,59.2,53.9,53.0,51.5,48.0,88,76,60,30.00,29.95,11,1,0,0.00
2014-5-18,72.3,62.2,54.2,54.0,49.1,44.0,87,64,37,29.98,29.93,4,0,0,0.00
2014-5-19,68.1,59.5,53.1,53.0,49.7,47.0,86,71,50,29.96,29.91,5,1,0,0.00
2014-5-20,70.6,59.0,51.0,53.0,50.1,47.0,90,74,48,30.00,29.92,3,0,0,0.00
2014-5-21,69.8,60.7,54.8,54.0,51.5,50.0,86,73,55,29.97,29.93,4,1,0,0.00
2014-5-22,67.4,58.3,53.9,53.0,51.2,50.0,90,78,60,30.04,29.92,4,1,0,0.00
2014-5-23,67.6,59.2,52.8,54.0,51.8,50.0,92,77,60,30.03,29.94,4,0,0,0.00
2014-5-24,68.9,61.1,54.8,54.0,51.6,49.0,89,72,56,30.00,29.93,5,0,0,0.00
2014-5-25,82.2,65.6,52.0,53.0,50.2,46.0,89,61,30,29.97,29.91,2,0,0,0.00
2014-5-26,79.8,64.8,51.9,56.0,50.9,47.0,87,63,37,30.02,29.94,2,0,0,0.00
2014-5-27,77.0,63.4,52.3,51.0,47.4,41.0,87,59,31,30.05,29.97,8,1,0,0.00
2014-5-28,79.9,64.9,49.8,50.0,41.7,32.0,81,48,21,30.06,29.95,5,0,0,0.00
2014-5-29,77.7,63.2,52.2,54.0,47.7,43.0,83,60,30,29.96,29.92,3,0,0,0.00
2014-5-30,62.7,56.1,52.0,50.0,48.7,47.0,85,77,61,29.97,29.90,6,1,0,0.00
2014-5-31,66.9,57.6,52.6,52.0,50.0,49.0,90,77,58,29.97,29.92,3,0,0,0.00
2014-6-1,67.8,58.0,51.4,53.0,50.6,49.0,92,78,58,29.93,29.82,2,0,0,0.00
2014-6-2,65.8,57.0,52.0,52.0,50.0,48.0,91,78,60,29.91,29.83,4,0,0,0.00
2014-6-3,66.8,57.9,52.5,52.0,50.1,48.0,89,76,57,29.94,29.88,3,0,0,0.00
2014-6-4,68.1,58.2,51.9,53.0,51.0,49.0,91,78,57,29.90,29.85,3,0,0,0.00
2014-6-5,66.0,58.9,52.9,54.0,52.0,50.0,91,79,62,29.87,29.82,3,0,0,0.00
2014-6-6,67.1,58.5,52.8,53.0,51.8,50.0,92,79,60,29.85,29.81,5,0,0,0.00
2014-6-7,68.1,59.0,52.5,53.0,51.3,50.0,91,77,58,29.85,29.80,4,0,0,0.00
2014-6-8,84.0,65.9,51.6,59.0,54.0,50.0,96,69,38,29.82,29.73,3,0,0,0.00
2014-6-9,74.0,62.7,54.4,58.0,53.9,52.0,94,75,50,29.77,29.72,3,0,0,0.00
2014-6-10,64.2,58.8,55.7,56.0,54.3,54.0,94,85,71,29.84,29.73,5,1,0,0.00
2014-6-11,68.8,60.8,55.6,56.0,53.8,51.0,91,78,60,29.91,29.81,3,0,0,0.00
2014-6-12,68.9,59.2,52.9,53.0,51.0,49.0,89,75,56,29.98,29.91,6,1,0,0.00
2014-6-13,79.6,64.8,53.6,54.0,51.0,46.0,89,64,31,29.97,29.91,3,0,0,0.00
2014-6-14,78.5,63.2,52.3,56.0,51.2,48.0,91,67,39,29.94,29.83,4,0,0,0.00
2014-6-15,70.9,59.6,53.2,53.0,50.2,49.0,87,72,48,29.83,29.78,5,1,0,0.00
2014-6-16,66.9,58.8,53.3,50.0,48.9,47.0,86,71,54,29.90,29.82,7,2,0,0.00
2014-6-17,75.8,62.1,48.9,50.0,46.8,42.0,89,61,30,29.94,29.87,3,0,0,0.00
2014-6-18,81.1,64.0,51.1,55.0,49.4,43.0,91,64,28,29.95,29.90,3,0,0,0.00
2014-6-19,70.8,60.0,51.6,53.0,51.3,49.0,92,74,53,30.01,29.94,3,0,0,0.00
2014-6-20,77.2,64.4,52.6,56.0,52.3,49.0,93,68,43,29.98,29.93,4,0,0,0.00
2014-6-21,68.6,59.9,53.6,52.0,50.0,49.0,85,71,53,29.94,29.88,5,1,0,0.00
2014-6-22,68.8,59.6,53.1,53.0,50.5,49.0,86,73,53,29.94,29.88,4,1,0,0.00
2014-6-23,73.7,62.6,53.6,54.0,51.1,48.0,88,68,48,29.96,29.91,4,1,0,0.00
2014-6-24,77.7,65.5,53.2,56.0,52.5,48.0,84,65,43,29.99,29.94,9,1,0,0.00
2014-6-25,68.4,60.8,56.2,58.0,55.7,53.0,92,84,66,30.00,29.94,4,1,0,0.00
2014-6-26,69.3,62.6,57.3,57.0,55.6,54.0,94,79,61,30.00,29.95,5,0,0,0.00
2014-6-27,72.1,63.8,56.9,60.0,57.2,55.0,93,80,60,30.00,29.93,3,0,0,0.00
2014-6-28,81.2,66.4,56.9,56.0,54.0,48.0,93,68,36,29.95,29.89,6,1,0,0.00
2014-6-29,81.6,67.5,54.4,56.0,53.0,50.0,90,63,33,29.93,29.83,4,0,0,0.00
2014-6-30,78.6,64.4,55.3,58.0,54.9,53.0,92,73,46,29.84,29.82,4,0,0,0.00
2014-7-1,68.6,60.0,56.5,56.0,54.9,53.0,94,84,63,29.86,29.80,6,0,0,0.00
2014-7-2,70.6,61.5,55.3,56.0,54.2,53.0,92,78,58,29.90,29.83,6,1,0,0.00
2014-7-3,71.6,61.9,55.7,55.0,53.2,52.0,87,74,54,29.94,29.88,5,1,0,0.00
2014-7-4,68.8,60.5,54.7,55.0,53.3,52.0,92,78,59,30.00,29.89,4,0,0,0.00
2014-7-5,70.9,61.2,54.4,55.0,53.0,51.0,92,76,56,30.08,30.00,3,0,0,0.00
2014-7-6,71.5,61.6,54.1,56.0,53.9,52.0,94,77,57,30.05,29.95,3,0,0,0.00
2014-7-7,70.9,60.7,55.6,56.0,54.5,53.0,91,80,59,29.95,29.85,3,0,0,0.00
2014-7-8,69.1,61.0,56.5,56.0,55.1,54.0,92,81,63,29.94,29.85,5,0,0,0.00
2014-7-9,69.9,61.8,57.2,57.0,55.4,54.0,92,80,61,29.96,29.89,4,0,0,0.00
2014-7-10,71.6,63.5,58.6,57.0,56.1,55.0,90,78,59,29.95,29.89,4,0,0,0.00
2014-7-11,71.8,63.3,58.6,57.0,55.2,54.0,90,76,55,30.08,29.94,4,0,0,0.00
2014-7-12,69.9,62.6,57.3,57.0,55.0,54.0,89,77,61,30.09,30.03,5,1,0,0.00
2014-7-13,74.6,63.5,55.9,58.0,55.6,54.0,93,77,56,30.04,29.89,5,0,0,0.00
2014-7-14,73.7,63.2,55.9,59.0,55.9,54.0,95,78,54,29.95,29.85,2,0,0,0.00
2014-7-15,76.7,64.6,57.3,62.0,58.4,55.0,94,82,58,30.01,29.93,4,0,0,0.00
2014-7-16,73.5,64.7,60.7,60.0,58.4,57.0,93,81,59,30.03,29.98,4,1,0,0.00
2014-7-17,69.4,63.4,60.4,59.0,57.8,56.0,93,82,67,30.02,29.97,3,0,0,0.00
2014-7-18,72.0,64.1,59.8,58.0,57.3,56.0,91,79,59,30.02,29.96,4,0,0,0.00
2014-7-19,71.8,64.1,60.1,59.0,57.7,57.0,91,81,62,29.97,29.94,5,1,0,0.00
2014-7-20,72.1,63.7,59.6,60.0,58.4,57.0,93,83,64,30.00,29.92,6,0,0,0.00
2014-7-21,75.1,66.2,61.5,61.0,59.0,57.0,90,78,56,30.08,29.97,3,0,0,0.00
2014-7-22,75.8,66.6,60.7,61.0,58.5,56.0,92,77,54,30.11,30.00,3,0,0,0.00
2014-7-23,77.4,68.9,62.6,62.0,60.2,58.0,88,75,57,30.14,30.04,4,0,0,0.00
2014-7-24,84.9,70.2,60.7,61.0,58.4,55.0,92,69,40,30.05,29.85,3,0,0,0.00
2014-7-25,86.1,69.8,57.6,62.0,57.3,55.0,95,69,37,29.89,29.84,2,0,0,0.00
2014-7-26,74.7,65.0,57.0,61.0,57.0,55.0,96,77,56,29.96,29.88,4,0,0,0.00
2014-7-27,76.3,65.2,59.2,59.0,57.4,56.0,91,77,54,30.02,29.93,2,0,0,0.00
2014-7-28,71.8,63.8,59.0,58.0,56.7,56.0,90,79,62,30.06,29.99,4,0,0,0.00
2014-7-29,74.6,65.0,58.9,59.0,57.1,56.0,92,77,54,30.05,29.99,4,0,0,0.00
2014-7-30,73.9,63.8,58.4,59.0,57.0,56.0,93,80,57,30.02,29.95,2,0,0,0.00
2014-7-31,72.5,63.3,57.8,59.0,56.8,55.0,93,80,59,29.99,29.90,4,0,0,0.00
2014-8-1,72.8,63.5,56.0,60.0,56.8,54.0,95,80,58,29.94,29.88,3,0,0,0.00
2014-8-2,69.4,61.6,57.6,57.0,56.0,55.0,92,82,64,29.96,29.89,6,0,0,0.00
2014-8-3,68.3,60.8,58.1,56.0,55.4,55.0,92,83,64,29.97,29.93,2,0,0,0.00
2014-8-4,73.9,62.3,57.6,59.0,56.7,55.0,93,82,59,30.00,29.94,3,0,0,0.00
2014-8-5,76.1,68.0,59.9,61.0,58.9,57.0,92,80,57,30.07,30.00,2,0,0,0.00
2014-8-6,77.0,67.0,59.6,64.0,59.5,56.0,93,78,56,30.03,29.97,3,0,0,0.00
2014-8-7,70.4,62.9,58.9,58.0,56.2,55.0,90,79,63,29.98,29.91,3,0,0,0.00
2014-8-8,73.5,63.9,58.6,57.0,54.9,53.0,86,74,56,29.93,29.88,2,0,0,0.01
2014-8-9,64.7,59.4,57.2,55.0,54.0,53.0,89,82,69,29.98,29.89,4,1,0,0.00
2014-8-10,71.5,62.6,57.3,58.0,55.8,54.0,90,79,59,30.00,29.94,4,1,0,0.00
2014-8-11,72.7,64.9,59.9,58.0,56.7,56.0,88,76,57,29.96,29.91,4,0,0,0.00
2014-8-12,73.3,64.9,60.1,57.0,56.0,54.0,87,74,54,30.00,29.93,5,1,0,0.00
2014-8-13,73.3,64.6,59.3,58.0,56.1,54.0,87,75,56,30.02,29.92,2,0,0,0.00
2014-8-14,73.3,63.0,58.3,58.0,56.6,55.0,92,81,57,29.98,29.92,3,0,0,0.00
2014-8-15,73.2,63.5,58.4,58.0,57.1,56.0,93,81,57,30.02,29.94,2,0,0,0.00
2014-8-16,73.3,63.5,58.9,59.0,56.9,56.0,92,80,60,30.05,29.99,3,0,0,0.00
2014-8-17,71.8,62.7,57.5,58.0,56.3,55.0,91,80,62,30.03,29.93,4,0,0,0.00
2014-8-18,65.6,60.4,58.0,58.0,56.5,56.0,93,87,72,29.92,29.82,4,1,0,0.00
2014-8-19,71.5,63.3,58.1,60.0,57.6,56.0,94,83,64,29.86,29.82,3,1,0,0.00
2014-8-20,69.8,64.0,60.7,60.0,58.1,56.0,89,81,66,29.94,29.85,4,0,0,0.00
2014-8-21,74.6,65.4,60.1,60.0,58.3,57.0,91,79,58,29.96,29.90,4,0,0,0.00
2014-8-22,72.8,63.9,60.1,59.0,57.7,56.0,92,81,63,29.95,29.91,5,1,0,0.00
2014-8-23,74.7,65.0,59.3,58.0,55.9,54.0,87,73,54,29.96,29.88,2,0,0,0.00
2014-8-24,72.8,64.6,59.9,57.0,56.0,54.0,87,75,57,29.91,29.83,3,0,0,0.00
2014-8-25,71.8,64.3,60.9,57.0,55.5,54.0,82,74,56,29.95,29.84,4,0,0,0.00
2014-8-26,74.4,65.7,60.4,58.0,56.2,55.0,87,73,53,30.02,29.95,4,0,0,0.00
2014-8-27,77.6,66.5,59.0,60.0,58.4,56.0,92,77,52,30.07,30.00,2,0,0,0.00
2014-8-28,74.4,64.2,59.3,60.0,57.8,56.0,91,81,59,30.07,29.95,4,0,0,0.00
2014-8-29,74.7,64.2,59.3,61.0,58.3,57.0,92,82,59,29.97,29.88,4,0,0,0.00
2014-8-30,80.3,68.0,58.1,62.0,58.7,56.0,96,74,51,29.92,29.86,4,0,0,0.00
2014-8-31,78.6,67.1,59.6,60.0,57.8,55.0,92,74,51,29.93,29.85,2,0,0,0.00
2014-9-1,82.2,67.7,56.5,60.0,57.1,54.0,94,72,41,29.85,29.77,2,0,0,0.00
2014-9-2,67.4,61.8,57.8,59.0,57.4,56.0,94,86,73,29.86,29.79,5,0,0,0.00
2014-9-3,74.9,64.7,60.5,59.0,57.6,57.0,89,79,55,29.80,29.72,4,0,0,0.00
2014-9-4,71.8,64.0,60.2,59.0,57.4,56.0,88,80,62,29.80,29.71,5,0,0,0.00
2014-9-5,72.3,63.4,58.9,58.0,56.4,55.0,89,78,59,29.92,29.80,4,0,0,0.00
2014-9-6,72.8,63.4,58.1,57.0,54.8,54.0,89,75,53,29.97,29.89,3,0,0,0.00
2014-9-7,71.8,62.1,55.0,55.0,53.9,52.0,91,76,55,29.91,29.81,4,0,0,0.00
2014-9-8,67.9,60.8,57.3,54.0,52.4,51.0,85,75,57,29.94,29.85,6,1,0,0.00
2014-9-9,72.8,63.1,57.0,57.0,55.0,53.0,90,76,56,29.99,29.91,3,0,0,0.00
2014-9-10,83.2,65.4,54.8,60.0,57.4,53.0,95,78,44,29.94,29.84,3,0,0,0.00
2014-9-11,83.0,65.2,56.0,61.0,57.9,54.0,96,80,44,29.91,29.83,4,0,0,0.00
2014-9-12,76.8,65.1,57.0,59.0,57.9,55.0,95,79,53,29.90,29.80,1,0,0,0.00
2014-9-13,76.0,64.3,59.5,59.0,57.9,56.0,93,81,54,29.86,29.80,3,0,0,0.00
2014-9-14,75.4,64.7,58.3,58.0,56.7,55.0,92,77,50,29.88,29.80,2,0,0,0.00
2014-9-15,76.5,65.7,59.6,59.0,57.6,56.0,92,76,51,29.93,29.84,3,0,0,0.00
2014-9-16,79.8,66.9,56.6,61.0,58.5,55.0,96,77,48,29.94,29.81,3,0,0,0.00
2014-9-17,77.0,68.5,62.1,65.0,59.0,57.0,88,73,51,29.83,29.77,4,0,0,0.00
2014-9-18,77.0,69.6,64.3,66.0,63.5,62.0,93,82,62,29.89,29.77,2,0,0,0.09
2014-9-19,73.2,65.9,62.6,63.0,61.3,60.0,92,85,68,29.92,29.86,5,0,0,0.00
2014-9-20,68.4,64.4,62.1,61.0,59.9,59.0,92,85,75,29.95,29.88,5,0,0,0.00
2014-9-21,73.2,65.6,62.7,62.0,59.5,58.0,87,81,65,30.02,29.93,6,0,0,0.00
2014-9-22,77.4,67.4,59.9,60.0,58.4,56.0,88,74,53,30.03,29.95,3,0,0,0.00
2014-9-23,76.7,66.1,56.7,64.0,59.8,55.0,96,81,59,30.01,29.92,3,0,0,0.00
2014-9-24,77.9,68.9,64.0,64.0,63.1,61.0,95,82,59,29.97,29.88,4,0,0,0.04
2014-9-25,74.6,64.6,58.3,61.0,58.4,56.0,96,81,53,30.02,29.89,1,0,0,0.49
2014-9-26,74.9,65.2,56.2,61.0,56.7,52.0,96,76,47,30.00,29.91,4,0,0,0.00
2014-9-27,75.3,64.4,55.9,59.0,56.0,53.0,95,76,52,29.92,29.83,5,0,0,0.00
2014-9-28,73.2,64.4,58.6,60.0,57.0,56.0,92,78,60,29.96,29.81,3,0,0,0.00
2014-9-29,70.4,62.4,57.5,58.0,57.5,56.0,95,84,65,30.04,29.95,11,0,0,0.00
2014-9-30,74.2,64.3,57.8,59.0,57.3,56.0,94,79,56,29.97,29.84,4,0,0,0.00
2014-10-1,88.2,68.9,55.0,56.0,44.5,34.0,91,48,16,29.93,29.84,3,0,0,0.00
2014-10-2,92.9,72.7,55.0,49.0,41.6,31.0,69,38,15,30.03,29.93,5,0,0,0.00
2014-10-3,99.0,75.5,58.6,52.0,43.2,31.0,67,36,10,30.09,29.99,2,0,0,0.00
2014-10-4,91.6,72.6,59.6,56.0,46.5,36.0,82,43,19,30.04,29.92,1,0,0,0.00
2014-10-5,87.4,67.6,56.2,58.0,51.2,40.0,92,59,28,29.95,29.88,1,0,0,0.00
2014-10-6,82.4,64.6,54.4,62.0,56.9,53.0,96,79,45,29.93,29.85,1,0,0,0.00
2014-10-7,74.6,62.0,55.4,59.0,56.1,54.0,95,82,53,29.93,29.86,2,0,0,0.00
2014-10-8,75.1,62.3,52.9,61.0,56.0,52.0,97,82,52,29.92,29.86,2,0,0,0.00
2014-10-9,69.8,60.8,56.2,57.0,55.8,54.0,95,84,63,29.99,29.90,2,0,0,0.00
2014-10-10,69.3,60.7,57.0,56.0,54.7,54.0,91,81,62,30.06,29.99,3,0,0,0.00
2014-10-11,75.1,62.7,56.5,57.0,55.1,53.0,92,78,49,30.05,29.96,4,0,0,0.00
2014-10-12,89.7,68.7,53.9,60.0,48.6,31.0,95,58,16,29.98,29.88,1,0,0,0.00
2014-10-13,82.0,65.4,57.2,58.0,45.7,29.0,91,54,20,29.96,29.90,1,0,0,0.00
2014-10-14,70.9,63.7,57.6,58.0,56.0,54.0,92,77,56,29.95,29.82,11,1,0,0.00
2014-10-15,72.7,64.1,56.0,59.0,57.1,54.0,93,79,56,30.02,29.85,5,0,0,0.16
2014-10-16,72.8,60.0,52.0,58.0,52.1,43.0,95,78,37,30.03,29.93,4,0,0,0.00
2014-10-17,76.0,62.6,51.7,57.0,50.9,47.0,92,69,40,29.97,29.91,2,0,0,0.00
2014-10-18,79.9,66.2,57.5,61.0,56.5,53.0,92,73,39,29.98,29.88,2,0,0,0.00
2014-10-19,74.9,63.5,56.7,62.0,58.4,55.0,96,84,60,29.92,29.86,4,0,0,0.00
2014-10-20,69.9,62.8,55.3,60.0,56.8,52.0,91,81,64,30.05,29.89,4,0,0,0.02
2014-10-21,74.0,60.2,50.8,54.0,49.1,41.0,94,71,30,30.10,30.00,2,0,0,0.00
2014-10-22,75.1,61.6,51.1,59.0,52.7,47.0,89,75,45,30.07,30.01,1,0,0,0.00
2014-10-23,75.6,63.3,57.0,60.0,57.3,54.0,96,82,52,30.06,29.96,2,0,0,0.00
2014-10-24,72.7,64.9,59.2,59.0,54.5,51.0,78,70,52,29.96,29.88,6,0,0,0.00
2014-10-25,70.8,63.8,57.2,60.0,56.8,53.0,94,79,61,30.14,29.88,7,1,0,0.29
2014-10-26,72.7,59.8,51.3,55.0,48.6,40.0,95,71,31,30.16,30.04,2,0,0,0.01
2014-10-27,71.3,59.0,48.9,51.0,48.4,46.0,90,70,42,30.06,30.00,2,0,0,0.00
2014-10-28,74.4,60.3,49.6,52.0,49.0,47.0,92,69,38,30.11,30.04,2,0,0,0.00
2014-10-29,84.7,66.0,53.3,55.0,50.1,43.0,93,63,24,30.11,29.97,4,0,0,0.00
2014-10-30,73.3,62.4,56.9,59.0,54.1,49.0,90,75,51,29.97,29.88,2,0,0,0.00
2014-10-31,62.3,58.7,53.8,59.0,55.3,52.0,95,88,78,29.89,29.71,2,0,0,0.30
2014-11-1,66.6,56.1,49.5,54.0,49.4,46.0,95,80,51,30.02,29.71,3,0,0,0.00
2014-11-2,69.6,55.8,47.1,52.0,46.1,40.0,95,73,36,30.17,30.02,2,0,0,0.00
2014-11-3,70.6,57.0,47.6,53.0,47.3,38.0,92,73,31,30.25,30.15,2,0,0,0.00
2014-11-4,74.6,59.6,49.6,56.0,49.0,42.0,96,72,32,30.31,30.22,2,0,0,0.01
2014-11-5,79.8,63.3,50.7,50.0,46.5,44.0,85,58,28,30.23,30.07,6,0,0,0.00
2014-11-6,76.1,62.0,52.6,57.0,52.3,49.0,91,73,45,30.21,30.13,1,0,0,0.00
2014-11-7,71.1,59.3,53.2,60.0,55.0,52.0,96,86,63,30.22,30.09,1,0,0,0.00
2014-11-8,81.8,63.8,52.6,61.0,51.8,46.0,98,70,30,30.11,30.00,3,0,0,0.01
2014-11-9,74.4,60.3,51.6,57.0,54.2,50.0,95,82,54,30.02,29.82,1,0,0,0.00
2014-11-10,62.0,56.9,51.9,59.0,54.1,51.0,96,90,78,29.84,29.79,2,0,0,0.01
2014-11-11,66.1,59.6,56.2,55.0,50.8,48.0,87,73,55,29.96,29.83,5,0,0,0.00
2014-11-12,67.4,60.1,55.9,52.0,47.8,45.0,82,65,46,30.02,29.95,3,0,0,0.02
2014-11-13,66.8,59.5,55.3,62.0,56.8,53.0,96,91,75,30.07,29.91,3,0,0,0.10
2014-11-14,68.1,58.1,51.3,59.0,53.4,49.0,97,85,65,30.09,30.04,2,0,0,0.01
2014-11-15,68.6,56.6,49.2,55.0,49.5,48.0,96,79,50,30.18,30.07,2,0,0,0.01
2014-11-16,64.3,56.9,50.4,50.0,30.7,20.0,87,42,19,30.24,30.16,4,0,0,0.00
2014-11-17,67.6,58.6,53.8,39.0,29.5,20.0,55,35,21,30.23,30.08,9,1,0,0.00
2014-11-18,67.1,58.6,54.2,43.0,40.1,34.0,60,51,37,30.12,30.03,6,1,0,0.00
2014-11-19,59.6,56.5,52.8,58.0,49.4,35.0,96,79,40,30.12,29.97,5,0,0,0.24
2014-11-20,57.5,54.2,50.8,56.0,53.1,50.0,97,96,93,30.11,29.93,2,0,0,0.55
2014-11-21,64.3,56.4,50.4,54.0,51.7,49.0,97,85,64,30.11,30.01,2,0,0,0.00
2014-11-22,69.8,59.2,49.4,63.0,53.7,46.0,97,82,60,30.24,30.03,5,0,0,0.27
2014-11-23,68.1,54.8,46.4,47.0,42.7,38.0,91,67,35,30.33,30.22,2,0,0,0.00
2014-11-24,69.8,53.7,43.2,47.0,41.4,39.0,88,66,35,30.40,30.30,2,0,0,0.00
2014-11-25,69.3,56.8,46.5,48.0,43.0,38.0,77,61,44,30.45,30.32,6,0,0,0.00
2014-11-26,72.5,58.1,49.5,50.0,47.0,44.0,88,69,41,30.31,30.18,3,0,0,0.00
2014-11-27,70.4,56.4,47.3,53.0,49.3,45.0,94,79,51,30.18,30.05,1,0,0,0.00
2014-11-28,66.3,55.4,47.6,55.0,50.6,46.0,97,85,57,30.06,29.84,2,0,0,0.06
2014-11-29,64.3,59.3,55.3,57.0,55.7,53.0,94,88,75,29.85,29.73,5,0,0,0.15
2014-11-30,62.1,56.1,50.8,57.0,53.0,50.0,96,89,70,30.01,29.72,3,0,0,0.51
2014-12-1,69.8,59.5,53.9,58.0,54.8,52.0,97,85,59,30.10,29.93,4,0,0,0.00
2014-12-2,61.8,57.3,54.7,58.0,54.6,52.0,95,90,80,29.93,29.66,9,1,0,1.24
2014-12-3,64.7,60.5,57.5,61.0,57.9,56.0,96,91,77,29.87,29.68,10,1,0,1.62
2014-12-4,68.8,60.4,55.1,60.0,57.2,54.0,96,90,66,30.01,29.86,4,0,0,0.18
2014-12-5,68.3,60.9,54.8,60.0,56.7,54.0,97,87,65,30.07,29.96,5,1,0,0.15
2014-12-6,69.3,60.8,57.0,61.0,57.9,55.0,96,90,69,30.20,30.06,3,0,0,0.34
2014-12-7,64.5,58.5,55.0,58.0,55.3,53.0,96,89,76,30.20,30.10,3,0,0,0.00
2014-12-8,71.1,59.5,54.1,58.0,55.3,53.0,96,87,59,30.17,30.11,1,0,0,0.01
2014-12-9,65.3,58.7,53.6,59.0,55.8,52.0,96,90,74,30.20,30.06,1,0,0,0.00
2014-12-10,65.0,59.8,53.5,56.0,54.7,52.0,96,84,70,30.05,29.68,6,1,0,0.01
2014-12-11,63.9,56.5,48.9,57.0,53.2,48.0,97,89,67,29.69,29.48,11,2,0,2.89
2014-12-12,50.1,46.9,48.2,49.0,46.3,47.0,97,93,96,29.80,29.63,1,0,0,0.00
2014-12-18,58.0,54.1,52.5,52.0,51.1,50.0,94,89,80,30.16,30.11,0,0,0,0.33
2014-12-19,56.5,55.4,54.1,55.0,53.2,50.0,97,92,78,30.15,30.08,7,1,0,0.66
2014-12-20,60.9,57.2,54.2,58.0,54.4,53.0,98,90,76,30.24,30.10,3,0,0,0.02
2014-12-21,67.4,59.6,54.8,61.0,57.2,53.0,97,92,74,30.30,30.22,2,0,0,0.02
2014-12-22,68.9,58.0,52.0,58.0,54.3,51.0,98,89,60,30.28,30.17,2,0,0,0.01
2014-12-23,69.6,57.1,50.4,57.0,52.2,49.0,97,85,59,30.21,30.11,1,0,0,0.01
2014-12-24,59.6,53.6,45.7,55.0,49.0,37.0,97,85,65,30.10,29.93,4,0,0,0.07
2014-12-25,60.2,48.6,41.1,39.0,35.2,26.0,83,63,28,30.14,30.04,4,0,0,0.00
2014-12-26,62.1,49.6,41.6,37.0,31.0,27.0,74,51,27,30.23,30.08,4,0,0,0.00
2014-12-27,56.9,47.9,40.6,38.0,33.2,29.0,79,58,35,30.36,30.23,4,0,0,0.00
2014-12-28,60.2,49.0,41.6,47.0,41.9,38.0,95,78,54,30.35,30.22,2,0,0,0.00
2014-12-29,56.3,47.1,41.3,47.0,41.7,38.0,96,83,57,30.21,30.09,2,0,0,0.01
2014-12-30,57.0,47.1,40.5,38.0,22.3,11.0,86,42,21,30.27,30.09,7,1,0,0.00
2014-12-31,60.2,47.3,38.6,21.0,13.3,6.0,41,27,13,30.26,30.05,2,0,0,0.00
2015-1-1,55.7,46.5,39.5,30.0,21.1,13.0,68,39,24,30.15,30.05,9,1,0,0.00
2015-1-2,56.3,44.3,36.3,33.0,30.3,26.0,78,60,33,30.20,30.10,2,0,0,0.00